createdAt,value
2023-12-30T00:00:17.747Z,0.98
2023-12-30T00:02:47.783Z,0.80
2023-12-30T00:05:15.717Z,0.80
2023-12-30T00:07:42.878Z,1.00
2023-12-30T00:10:10.164Z,0.93
2023-12-30T00:12:37.269Z,1.10
2023-12-30T00:15:04.844Z,1.02
2023-12-30T00:17:31.794Z,0.60
2023-12-30T00:19:58.698Z,0.85
2023-12-30T00:22:25.696Z,0.90
2023-12-30T00:24:52.704Z,0.63
2023-12-30T00:27:19.643Z,0.82
2023-12-30T00:29:46.483Z,0.93
2023-12-30T00:32:13.533Z,0.70
2023-12-30T00:34:40.462Z,0.90
2023-12-30T00:37:07.351Z,0.70
2023-12-30T00:39:34.160Z,0.85
2023-12-30T00:42:01.163Z,0.90
2023-12-30T00:44:27.980Z,0.75
2023-12-30T00:46:54.854Z,0.90
2023-12-30T00:49:21.692Z,0.80
2023-12-30T00:51:48.582Z,0.50
2023-12-30T00:54:15.399Z,0.77
2023-12-30T00:56:42.181Z,1.00
2023-12-30T00:59:08.996Z,0.82
2023-12-30T01:01:36.181Z,0.75
2023-12-30T01:04:03.147Z,0.90
2023-12-30T01:06:29.999Z,0.63
2023-12-30T01:08:57.060Z,0.90
2023-12-30T01:11:24.051Z,0.90
2023-12-30T01:13:50.954Z,0.70
2023-12-30T01:16:18.577Z,1.00
2023-12-30T01:18:45.757Z,0.80
2023-12-30T01:21:13.181Z,0.98
2023-12-30T01:23:40.059Z,0.90
2023-12-30T01:26:07.030Z,0.82
2023-12-30T01:28:35.245Z,0.70
2023-12-30T01:31:02.378Z,0.77
2023-12-30T01:33:29.471Z,0.75
2023-12-30T01:35:59.744Z,0.80
2023-12-30T01:38:26.559Z,0.85
2023-12-30T01:40:54.292Z,0.70
2023-12-30T01:43:26.642Z,0.80
2023-12-30T01:45:57.335Z,0.68
2023-12-30T01:48:24.610Z,0.82
2023-12-30T01:50:53.787Z,1.30
2023-12-30T01:53:20.999Z,1.10
2023-12-30T01:55:51.720Z,1.00
2023-12-30T01:58:21.002Z,0.93
2023-12-30T02:00:55.417Z,1.25
2023-12-30T02:03:25.796Z,1.05
2023-12-30T02:05:52.892Z,0.90
2023-12-30T02:08:20.053Z,0.65
2023-12-30T02:10:47.152Z,1.15
2023-12-30T02:13:13.971Z,0.95
2023-12-30T02:15:40.803Z,1.20
2023-12-30T02:18:07.822Z,0.95
2023-12-30T02:20:35.198Z,0.70
2023-12-30T02:23:02.575Z,0.60
2023-12-30T02:25:29.509Z,0.70
2023-12-30T02:27:56.354Z,0.63
2023-12-30T02:30:25.364Z,0.80
2023-12-30T02:32:58.772Z,0.80
2023-12-30T02:35:26.041Z,0.75
2023-12-30T02:37:53.054Z,0.70
2023-12-30T02:40:20.161Z,0.73
2023-12-30T02:42:46.990Z,0.80
2023-12-30T02:45:14.027Z,0.68
2023-12-30T02:47:41.006Z,0.60
2023-12-30T02:50:08.538Z,1.08
2023-12-30T02:52:35.557Z,0.85
2023-12-30T02:55:04.384Z,0.95
2023-12-30T02:57:31.289Z,0.98
2023-12-30T02:59:58.368Z,1.10
2023-12-30T03:02:25.217Z,1.17
2023-12-30T03:04:53.321Z,0.90
2023-12-30T03:07:20.787Z,0.90
2023-12-30T03:09:47.699Z,0.77
2023-12-30T03:12:16.132Z,0.70
2023-12-30T03:14:42.942Z,0.93
2023-12-30T03:17:09.757Z,0.90
2023-12-30T03:19:36.928Z,0.70
2023-12-30T03:22:04.126Z,0.70
2023-12-30T03:24:31.318Z,1.10
2023-12-30T03:26:58.230Z,1.00
2023-12-30T03:29:25.057Z,1.00
2023-12-30T03:31:54.406Z,0.90
2023-12-30T03:34:21.353Z,0.90
2023-12-30T03:36:48.688Z,0.85
2023-12-30T03:39:15.501Z,1.10
2023-12-30T03:41:42.325Z,1.05
2023-12-30T03:44:09.144Z,1.10
2023-12-30T03:46:37.031Z,0.90
2023-12-30T03:49:04.213Z,0.90
2023-12-30T03:51:31.054Z,0.88
2023-12-30T03:53:57.908Z,1.30
2023-12-30T03:56:24.696Z,0.90
2023-12-30T03:58:52.046Z,1.20
2023-12-30T04:01:19.115Z,1.00
2023-12-30T04:03:45.969Z,0.70
2023-12-30T04:06:22.510Z,1.00
2023-12-30T04:08:49.564Z,0.80
2023-12-30T04:11:16.431Z,0.93
2023-12-30T04:13:43.393Z,0.88
2023-12-30T04:16:10.255Z,0.90
2023-12-30T04:18:37.047Z,0.90
2023-12-30T04:21:03.978Z,0.80
2023-12-30T04:23:30.848Z,0.90
2023-12-30T04:25:57.641Z,0.93
2023-12-30T04:28:24.471Z,1.00
2023-12-30T04:30:51.469Z,0.95
2023-12-30T04:33:18.412Z,1.15
2023-12-30T04:35:45.536Z,0.90
2023-12-30T04:38:12.454Z,0.80
2023-12-30T04:40:39.514Z,0.68
2023-12-30T04:43:06.825Z,0.82
2023-12-30T04:45:33.699Z,1.20
2023-12-30T04:48:00.677Z,1.25
2023-12-30T04:50:28.896Z,1.88
2023-12-30T04:52:55.782Z,1.58
2023-12-30T04:55:22.597Z,1.73
2023-12-30T04:57:49.701Z,0.90
2023-12-30T05:00:20.939Z,0.93
2023-12-30T05:02:49.648Z,1.08
2023-12-30T05:05:16.576Z,0.88
2023-12-30T05:07:43.395Z,0.80
2023-12-30T05:10:13.711Z,1.05
2023-12-30T05:12:40.573Z,0.75
2023-12-30T05:15:08.257Z,1.10
2023-12-30T05:17:36.623Z,2.42
2023-12-30T05:20:05.577Z,1.85
2023-12-30T05:22:32.604Z,1.13
2023-12-30T05:24:59.550Z,1.15
2023-12-30T05:27:26.527Z,1.67
2023-12-30T05:29:53.447Z,1.55
2023-12-30T05:32:20.233Z,1.35
2023-12-30T05:34:47.053Z,1.40
2023-12-30T05:37:14.287Z,0.85
2023-12-30T05:39:41.430Z,0.80
2023-12-30T05:42:08.313Z,0.80
2023-12-30T05:44:35.533Z,0.75
2023-12-30T05:47:03.644Z,0.88
2023-12-30T05:49:30.472Z,1.05
2023-12-30T05:51:57.425Z,1.00
2023-12-30T05:54:26.439Z,1.05
2023-12-30T05:56:54.739Z,0.70
2023-12-30T05:59:21.629Z,0.98
2023-12-30T06:01:48.855Z,0.75
2023-12-30T06:04:15.808Z,1.00
2023-12-30T06:06:44.372Z,0.80
2023-12-30T06:09:11.292Z,0.70
2023-12-30T06:11:38.616Z,0.63
2023-12-30T06:14:05.760Z,1.05
2023-12-30T06:16:32.739Z,0.52
2023-12-30T06:18:59.902Z,0.50
2023-12-30T06:21:26.947Z,0.50
2023-12-30T06:23:53.769Z,0.60
2023-12-30T06:26:20.563Z,0.65
2023-12-30T06:28:48.041Z,0.45
2023-12-30T06:31:15.265Z,0.50
2023-12-30T06:33:42.293Z,0.50
2023-12-30T06:36:09.560Z,0.55
2023-12-30T06:38:36.803Z,0.73
2023-12-30T06:41:07.754Z,0.40
2023-12-30T06:43:34.576Z,0.20
2023-12-30T06:46:06.080Z,0.32
2023-12-30T06:48:33.037Z,0.43
2023-12-30T06:51:02.211Z,0.38
2023-12-30T06:53:32.106Z,0.30
2023-12-30T06:56:02.877Z,0.20
2023-12-30T06:58:30.770Z,0.28
2023-12-30T07:00:58.339Z,0.25
2023-12-30T07:03:25.316Z,0.20
2023-12-30T07:05:52.254Z,0.30
2023-12-30T07:08:19.113Z,0.40
2023-12-30T07:10:45.990Z,0.30
2023-12-30T07:13:12.842Z,0.30
2023-12-30T07:15:40.148Z,0.30
2023-12-30T07:18:08.033Z,0.40
2023-12-30T07:20:36.732Z,0.40
2023-12-30T07:23:05.974Z,0.20
2023-12-30T07:25:33.322Z,0.20
2023-12-30T07:28:00.561Z,0.40
2023-12-30T07:30:27.598Z,0.30
2023-12-30T07:32:54.564Z,4.80
2023-12-30T07:35:21.803Z,0.57
2023-12-30T07:37:48.856Z,0.40
2023-12-30T07:40:16.985Z,0.50
2023-12-30T07:42:43.787Z,0.30
2023-12-30T07:45:11.729Z,0.40
2023-12-30T07:47:38.566Z,0.40
2023-12-30T07:50:07.075Z,0.30
2023-12-30T07:52:34.046Z,0.60
2023-12-30T07:55:01.247Z,0.90
2023-12-30T07:57:28.577Z,0.50
2023-12-30T07:59:56.518Z,0.30
2023-12-30T08:02:23.512Z,0.28
2023-12-30T08:04:50.489Z,0.45
2023-12-30T08:07:17.906Z,0.20
2023-12-30T08:09:44.888Z,0.30
2023-12-30T08:12:12.163Z,0.30
2023-12-30T08:14:39.467Z,0.30
2023-12-30T08:17:06.457Z,0.40
2023-12-30T08:19:33.333Z,0.50
2023-12-30T08:22:00.389Z,1.20
2023-12-30T08:24:29.732Z,0.80
2023-12-30T08:26:56.743Z,0.90
2023-12-30T08:29:23.697Z,1.10
2023-12-30T08:31:50.775Z,0.90
2023-12-30T08:34:17.926Z,0.95
2023-12-30T08:36:45.292Z,2.40
2023-12-30T08:39:12.654Z,0.90
2023-12-30T08:41:41.628Z,0.60
2023-12-30T08:44:08.597Z,0.60
2023-12-30T08:46:36.420Z,0.65
2023-12-30T08:49:06.428Z,0.57
2023-12-30T08:51:34.541Z,0.50
2023-12-30T08:54:01.470Z,0.80
2023-12-30T08:56:35.365Z,0.68
2023-12-30T08:59:02.733Z,0.77
2023-12-30T09:01:30.045Z,0.65
2023-12-30T09:03:57.399Z,0.70
2023-12-30T09:06:24.398Z,0.43
2023-12-30T09:08:51.298Z,1.50
2023-12-30T09:11:23.319Z,0.40
2023-12-30T09:13:52.827Z,0.55
2023-12-30T09:16:19.927Z,1.45
2023-12-30T09:18:47.311Z,0.90
2023-12-30T09:21:14.432Z,1.00
2023-12-30T09:23:57.758Z,0.70
2023-12-30T09:26:25.078Z,0.95
2023-12-30T09:28:53.238Z,1.15
2023-12-30T09:31:26.114Z,0.70
2023-12-30T09:33:53.012Z,0.80
2023-12-30T09:36:20.251Z,0.90
2023-12-30T09:38:47.008Z,0.60
2023-12-30T09:41:15.115Z,0.70
2023-12-30T09:43:43.123Z,0.82
2023-12-30T09:46:10.948Z,0.82
2023-12-30T09:48:40.768Z,0.70
2023-12-30T09:51:08.259Z,0.80
2023-12-30T09:53:35.181Z,0.52
2023-12-30T09:56:02.812Z,0.65
2023-12-30T09:58:30.569Z,0.60
2023-12-30T10:00:57.599Z,0.60
2023-12-30T10:03:25.014Z,0.70
2023-12-30T10:05:55.873Z,0.82
2023-12-30T10:08:23.747Z,0.57
2023-12-30T10:10:51.539Z,0.80
2023-12-30T10:13:23.038Z,0.65
2023-12-30T10:15:50.998Z,0.52
2023-12-30T10:18:18.222Z,0.82
2023-12-30T10:20:47.729Z,0.70
2023-12-30T10:23:15.656Z,0.68
2023-12-30T10:25:42.880Z,0.50
2023-12-30T10:28:11.016Z,0.70
2023-12-30T10:30:38.117Z,0.70
2023-12-30T10:33:11.466Z,0.65
2023-12-30T10:35:43.969Z,0.40
2023-12-30T10:38:13.324Z,0.65
2023-12-30T10:40:41.340Z,0.52
2023-12-30T10:43:10.305Z,0.77
2023-12-30T10:45:38.376Z,0.47
2023-12-30T10:48:08.204Z,0.60
2023-12-30T10:50:40.480Z,0.52
2023-12-30T10:53:17.191Z,0.70
2023-12-30T10:55:51.364Z,0.40
2023-12-30T10:58:21.135Z,0.57
2023-12-30T11:00:57.374Z,0.50
2023-12-30T11:03:26.031Z,0.55
2023-12-30T11:06:16.297Z,0.70
2023-12-30T11:08:45.206Z,0.80
2023-12-30T11:11:15.811Z,0.55
2023-12-30T11:13:43.479Z,0.47
2023-12-30T11:16:18.204Z,0.75
2023-12-30T11:21:43.907Z,0.60
2023-12-30T11:24:13.102Z,0.65
2023-12-30T11:26:45.934Z,0.52
2023-12-30T11:29:19.937Z,0.57
2023-12-30T11:31:49.192Z,0.60
2023-12-30T11:34:16.733Z,0.52
2023-12-30T11:36:46.757Z,0.77
2023-12-30T11:39:39.647Z,1.10
2023-12-30T11:42:08.109Z,0.60
2023-12-30T11:44:35.381Z,0.60
2023-12-30T11:47:02.201Z,0.63
2023-12-30T11:49:29.935Z,0.65
2023-12-30T11:52:06.012Z,0.40
2023-12-30T11:54:34.430Z,0.60
2023-12-30T11:57:01.835Z,0.50
2023-12-30T11:59:29.012Z,0.60
2023-12-30T12:02:13.058Z,0.43
2023-12-30T12:04:40.604Z,0.60
2023-12-30T12:07:08.471Z,0.70
2023-12-30T12:09:35.416Z,0.80
2023-12-30T12:12:02.782Z,0.52
2023-12-30T12:14:30.616Z,0.50
2023-12-30T12:16:57.554Z,0.80
2023-12-30T12:19:26.778Z,0.57
2023-12-30T12:22:01.462Z,0.50
2023-12-30T12:26:55.255Z,0.50
2023-12-30T12:29:22.188Z,0.30
2023-12-30T12:31:49.034Z,0.50
2023-12-30T12:34:26.986Z,0.43
2023-12-30T12:36:54.614Z,0.60
2023-12-30T12:39:21.395Z,0.40
2023-12-30T12:41:48.279Z,0.82
2023-12-30T12:44:15.166Z,0.38
2023-12-30T12:46:42.601Z,0.30
2023-12-30T12:49:09.734Z,0.45
2023-12-30T12:51:40.909Z,0.70
2023-12-30T12:54:07.784Z,0.70
2023-12-30T12:56:35.214Z,0.70
2023-12-30T12:59:02.038Z,0.63
2023-12-30T13:01:29.810Z,0.55
2023-12-30T13:03:59.395Z,0.30
2023-12-30T13:06:26.315Z,0.35
2023-12-30T13:08:54.912Z,0.80
2023-12-30T13:11:27.847Z,0.80
2023-12-30T13:13:56.141Z,0.70
2023-12-30T13:16:23.773Z,0.63
2023-12-30T13:18:50.868Z,0.55
2023-12-30T13:21:17.981Z,0.60
2023-12-30T13:23:45.223Z,0.60
2023-12-30T13:26:12.881Z,0.70
2023-12-30T13:28:41.014Z,0.70
2023-12-30T13:31:11.052Z,0.80
2023-12-30T13:33:40.327Z,0.50
2023-12-30T13:36:13.023Z,0.55
2023-12-30T13:38:44.765Z,0.60
2023-12-30T13:41:12.160Z,0.50
2023-12-30T13:43:39.551Z,0.60
2023-12-30T13:46:24.989Z,0.60
2023-12-30T13:49:07.776Z,0.70
2023-12-30T13:51:34.812Z,0.60
2023-12-30T13:54:01.951Z,0.68
2023-12-30T13:56:29.008Z,0.63
2023-12-30T13:58:58.799Z,0.90
2023-12-30T14:01:26.986Z,0.50
2023-12-30T14:03:54.946Z,0.88
2023-12-30T14:06:29.633Z,0.63
2023-12-30T14:11:34.494Z,0.82
2023-12-30T14:14:04.524Z,0.88
2023-12-30T14:16:32.287Z,1.02
2023-12-30T14:18:59.440Z,0.90
2023-12-30T14:21:26.402Z,0.77
2023-12-30T14:23:53.228Z,0.93
2023-12-30T14:26:20.097Z,0.98
2023-12-30T14:28:47.305Z,0.90
2023-12-30T14:31:16.575Z,0.90
2023-12-30T14:33:43.810Z,0.95
2023-12-30T14:36:10.834Z,1.10
2023-12-30T14:38:38.021Z,1.10
2023-12-30T14:41:04.812Z,1.05
2023-12-30T14:43:31.742Z,1.20
2023-12-30T14:45:58.935Z,1.05
2023-12-30T14:48:26.014Z,1.30
2023-12-30T14:50:53.367Z,1.25
2023-12-30T14:53:20.186Z,1.05
2023-12-30T14:55:49.021Z,1.10
2023-12-30T14:58:15.942Z,2.25
2023-12-30T15:00:42.949Z,5.05
2023-12-30T15:03:10.574Z,5.43
2023-12-30T15:05:37.861Z,4.40
2023-12-30T15:08:06.008Z,2.50
2023-12-30T15:10:33.111Z,1.52
2023-12-30T15:13:00.877Z,1.17
2023-12-30T15:15:28.038Z,0.90
2023-12-30T15:17:54.943Z,1.10
2023-12-30T15:20:22.044Z,1.20
2023-12-30T15:22:49.059Z,0.98
2023-12-30T15:25:17.067Z,1.00
2023-12-30T15:27:46.355Z,1.02
2023-12-30T15:30:13.794Z,1.08
2023-12-30T15:32:40.987Z,1.02
2023-12-30T15:35:10.185Z,1.55
2023-12-30T15:37:37.614Z,0.90
2023-12-30T15:40:05.806Z,0.93
2023-12-30T15:42:32.750Z,0.80
2023-12-30T15:44:59.924Z,0.63
2023-12-30T15:47:28.480Z,0.60
2023-12-30T15:49:55.502Z,0.60
2023-12-30T15:52:22.693Z,0.50
2023-12-30T15:54:49.575Z,0.60
2023-12-30T15:57:16.357Z,0.60
2023-12-30T15:59:44.768Z,0.57
2023-12-30T16:02:11.684Z,0.80
2023-12-30T16:04:38.668Z,0.77
2023-12-30T16:07:05.671Z,0.93
2023-12-30T16:09:32.550Z,1.00
2023-12-30T16:12:00.556Z,1.13
2023-12-30T16:14:27.493Z,0.90
2023-12-30T16:16:55.043Z,0.80
2023-12-30T16:19:22.769Z,0.80
2023-12-30T16:21:51.044Z,1.30
2023-12-30T16:24:18.482Z,1.08
2023-12-30T16:26:45.628Z,1.40
2023-12-30T16:29:13.410Z,0.88
2023-12-30T16:31:40.321Z,0.90
2023-12-30T16:34:07.303Z,3.07
2023-12-30T16:36:36.312Z,1.00
2023-12-30T16:39:03.353Z,0.90
2023-12-30T16:41:30.453Z,0.80
2023-12-30T16:43:58.672Z,1.00
2023-12-30T16:46:26.275Z,1.02
2023-12-30T16:48:54.457Z,0.85
2023-12-30T16:51:21.890Z,0.82
2023-12-30T16:53:49.265Z,0.60
2023-12-30T16:56:16.878Z,0.80
2023-12-30T16:58:44.122Z,1.00
2023-12-30T17:01:11.078Z,0.70
2023-12-30T17:03:38.275Z,0.85
2023-12-30T17:06:05.874Z,0.90
2023-12-30T17:08:33.009Z,0.73
2023-12-30T17:11:00.135Z,0.60
2023-12-30T17:13:35.033Z,0.80
2023-12-30T17:16:07.472Z,0.68
2023-12-30T17:18:34.700Z,0.85
2023-12-30T17:21:01.515Z,1.00
2023-12-30T17:23:28.463Z,0.90
2023-12-30T17:25:55.399Z,0.95
2023-12-30T17:28:22.400Z,0.98
2023-12-30T17:30:49.759Z,1.05
2023-12-30T17:33:16.941Z,0.80
2023-12-30T17:35:44.365Z,1.08
2023-12-30T17:38:11.726Z,0.80
2023-12-30T17:40:38.833Z,0.90
2023-12-30T17:43:06.297Z,0.90
2023-12-30T17:45:33.505Z,0.88
2023-12-30T17:48:00.484Z,1.00
2023-12-30T17:50:27.417Z,0.93
2023-12-30T17:52:54.701Z,1.17
2023-12-30T17:55:21.711Z,1.15
2023-12-30T17:57:48.692Z,1.00
2023-12-30T18:00:15.839Z,1.17
2023-12-30T18:02:43.762Z,1.13
2023-12-30T18:05:11.046Z,0.93
2023-12-30T18:07:37.951Z,1.50
2023-12-30T18:10:05.521Z,1.15
2023-12-30T18:12:32.464Z,1.10
2023-12-30T18:14:59.287Z,1.30
2023-12-30T18:17:28.745Z,1.00
2023-12-30T18:19:55.831Z,1.25
2023-12-30T18:22:22.961Z,1.08
2023-12-30T18:24:49.920Z,1.10
2023-12-30T18:27:16.849Z,1.10
2023-12-30T18:29:43.760Z,1.30
2023-12-30T18:32:12.159Z,1.52
2023-12-30T18:34:41.897Z,1.48
2023-12-30T18:37:08.889Z,1.23
2023-12-30T18:39:36.284Z,1.23
2023-12-30T18:42:03.577Z,1.63
2023-12-30T18:44:30.401Z,1.23
2023-12-30T18:46:57.229Z,1.50
2023-12-30T18:49:24.317Z,1.50
2023-12-30T18:51:51.546Z,1.30
2023-12-30T18:54:18.360Z,1.20
2023-12-30T18:56:47.002Z,1.50
2023-12-30T18:59:13.954Z,1.23
2023-12-30T19:01:45.514Z,1.10
2023-12-30T19:04:13.312Z,1.38
2023-12-30T19:06:40.495Z,1.30
2023-12-30T19:09:08.569Z,1.33
2023-12-30T19:11:36.002Z,1.30
2023-12-30T19:14:02.983Z,1.20
2023-12-30T19:16:30.065Z,1.30
2023-12-30T19:18:57.236Z,2.10
2023-12-30T19:21:24.144Z,1.80
2023-12-30T19:23:50.962Z,1.60
2023-12-30T19:26:17.849Z,1.40
2023-12-30T19:28:44.791Z,1.90
2023-12-30T19:31:13.574Z,1.73
2023-12-30T19:33:42.290Z,1.33
2023-12-30T19:36:11.287Z,1.23
2023-12-30T19:38:39.016Z,1.20
2023-12-30T19:41:06.274Z,1.35
2023-12-30T19:43:35.287Z,1.13
2023-12-30T19:46:06.875Z,1.00
2023-12-30T19:48:35.272Z,1.38
2023-12-30T19:51:04.934Z,1.48
2023-12-30T19:53:34.014Z,1.10
2023-12-30T19:56:02.579Z,1.10
2023-12-30T19:58:32.055Z,0.98
2023-12-30T20:00:59.486Z,1.30
2023-12-30T20:03:26.692Z,1.27
2023-12-30T20:05:53.715Z,1.10
2023-12-30T20:08:20.702Z,1.13
2023-12-30T20:10:49.367Z,1.17
2023-12-30T20:13:16.377Z,1.23
2023-12-30T20:15:43.828Z,1.30
2023-12-30T20:18:10.931Z,1.50
2023-12-30T20:20:38.251Z,1.00
2023-12-30T20:23:05.616Z,1.02
2023-12-30T20:25:32.786Z,1.10
2023-12-30T20:27:59.741Z,1.20
2023-12-30T20:30:27.470Z,0.90
2023-12-30T20:32:54.690Z,1.05
2023-12-30T20:35:21.851Z,1.17
2023-12-30T20:37:49.055Z,1.20
2023-12-30T20:40:16.734Z,1.50
2023-12-30T20:42:43.544Z,1.60
2023-12-30T20:45:11.110Z,1.77
2023-12-30T20:47:38.341Z,1.52
2023-12-30T20:50:06.201Z,1.05
2023-12-30T20:52:34.370Z,1.20
2023-12-30T20:55:04.996Z,1.20
2023-12-30T20:57:32.223Z,1.23
2023-12-30T20:59:59.107Z,0.98
2023-12-30T21:02:26.000Z,1.30
2023-12-30T21:04:53.541Z,1.08
2023-12-30T21:07:20.509Z,1.77
2023-12-30T21:09:47.317Z,1.30
2023-12-30T21:12:14.749Z,0.98
2023-12-30T21:14:41.558Z,0.93
2023-12-30T21:17:08.416Z,0.90
2023-12-30T21:19:35.559Z,1.08
2023-12-30T21:22:03.111Z,1.00
2023-12-30T21:24:30.573Z,1.00
2023-12-30T21:26:57.651Z,1.48
2023-12-30T21:29:24.466Z,1.33
2023-12-30T21:31:52.375Z,0.90
2023-12-30T21:34:19.297Z,1.38
2023-12-30T21:36:46.160Z,0.93
2023-12-30T21:39:13.764Z,1.10
2023-12-30T21:41:40.898Z,1.33
2023-12-30T21:44:07.865Z,1.10
2023-12-30T21:46:45.740Z,1.20
2023-12-30T21:49:15.524Z,1.10
2023-12-30T21:51:43.655Z,1.20
2023-12-30T21:54:10.601Z,1.10
2023-12-30T21:56:37.767Z,1.10
2023-12-30T21:59:04.599Z,1.02
2023-12-30T22:01:31.715Z,1.10
2023-12-30T22:03:58.743Z,0.90
2023-12-30T22:06:25.680Z,0.95
2023-12-30T22:08:52.707Z,1.13
2023-12-30T22:11:20.338Z,1.00
2023-12-30T22:13:47.512Z,1.30
2023-12-30T22:16:14.544Z,1.25
2023-12-30T22:18:41.405Z,1.10
2023-12-30T22:21:08.264Z,1.15
2023-12-30T22:23:38.388Z,1.10
2023-12-30T22:26:05.465Z,1.10
2023-12-30T22:28:32.300Z,1.27
2023-12-30T22:30:59.208Z,1.45
2023-12-30T22:33:26.274Z,1.23
2023-12-30T22:35:53.408Z,1.23
2023-12-30T22:38:20.506Z,1.33
2023-12-30T22:40:47.387Z,1.30
2023-12-30T22:43:14.350Z,1.27
2023-12-30T22:45:42.082Z,1.52
2023-12-30T22:48:09.235Z,1.45
2023-12-30T22:50:38.381Z,1.20
2023-12-30T22:53:05.529Z,1.20
2023-12-30T22:55:32.543Z,1.20
2023-12-30T22:57:59.326Z,1.40
2023-12-30T23:00:28.700Z,1.40
2023-12-30T23:02:56.163Z,1.42
2023-12-30T23:05:23.720Z,1.30
2023-12-30T23:07:50.685Z,1.60
2023-12-30T23:10:17.725Z,1.27
2023-12-30T23:12:45.439Z,1.27
2023-12-30T23:15:14.253Z,1.40
2023-12-30T23:17:42.059Z,1.50
2023-12-30T23:20:10.073Z,1.70
2023-12-30T23:22:37.202Z,1.50
2023-12-30T23:25:06.296Z,1.40
2023-12-30T23:27:33.928Z,1.50
2023-12-30T23:30:05.048Z,1.60
2023-12-30T23:32:34.952Z,1.35
2023-12-30T23:35:04.911Z,1.52
2023-12-30T23:37:32.825Z,1.60
2023-12-30T23:40:00.429Z,1.48
2023-12-30T23:42:29.879Z,1.60
2023-12-30T23:44:56.731Z,2.00
2023-12-30T23:47:23.540Z,1.60
2023-12-30T23:49:50.518Z,1.52
2023-12-30T23:52:18.508Z,1.60
2023-12-30T23:54:45.479Z,1.52
2023-12-30T23:57:12.286Z,1.55
2023-12-30T23:59:40.182Z,1.65
